Time;durP1;ratioP1;P1;durP2;ratioP2;P2;SDS_P1;SDS_P2;PMS_P1;PMS_P2;Temp;Humidity;BMP_temperature;BMP_pressure;BME280_temperature;BME280_humidity;BME280_pressure;Samples;Min_cycle;Max_cycle;Signal;HPM_P1;HPM_P2
2022/01/07 00:01:47;;;;;;;27.73;24.80;;;0.20;99.90;;;;;;5073472;28;20910;-73
2022/01/07 00:04:14;;;;;;;24.37;22.27;;;0.30;99.90;;;;;;5073112;28;20447;-72
2022/01/07 00:06:41;;;;;;;27.17;24.47;;;0.30;99.90;;;;;;5073375;28;20455;-72
2022/01/07 00:09:09;;;;;;;30.70;27.70;;;0.30;99.90;;;;;;5073387;28;20446;-72
2022/01/07 00:11:36;;;;;;;28.43;25.83;;;0.30;99.90;;;;;;5073197;28;20769;-72
2022/01/07 00:14:02;;;;;;;27.80;25.30;;;0.30;99.90;;;;;;5073075;28;20945;-73
2022/01/07 00:16:29;;;;;;;28.20;24.40;;;0.30;99.90;;;;;;5073091;28;20508;-72
2022/01/07 00:18:57;;;;;;;27.80;25.13;;;0.30;99.90;;;;;;5072980;28;20946;-73
2022/01/07 00:21:23;;;;;;;29.93;26.70;;;0.20;99.90;;;;;;5072931;28;20499;-73
2022/01/07 00:23:50;;;;;;;27.93;25.60;;;0.30;99.90;;;;;;5073026;28;20454;-73
2022/01/07 00:26:18;;;;;;;27.50;25.13;;;0.20;99.90;;;;;;5073117;28;20455;-73
2022/01/07 00:28:45;;;;;;;28.37;25.70;;;0.20;99.90;;;;;;5072861;28;20451;-73
2022/01/07 00:31:12;;;;;;;27.00;24.40;;;0.10;99.90;;;;;;5072769;28;20443;-73
2022/01/07 00:33:38;;;;;;;27.13;24.33;;;0.10;99.90;;;;;;5072804;28;20451;-73
2022/01/07 00:36:06;;;;;;;32.67;27.40;;;0.10;99.90;;;;;;5072787;28;20454;-74
2022/01/07 00:38:33;;;;;;;28.40;25.97;;;0.10;99.90;;;;;;5072655;28;20546;-73
2022/01/07 00:41:00;;;;;;;26.77;24.00;;;0.10;99.90;;;;;;5072584;28;20451;-74
2022/01/07 00:43:28;;;;;;;32.00;24.97;;;0.00;99.90;;;;;;5072745;28;20451;-73
2022/01/07 00:45:54;;;;;;;27.17;24.63;;;0.10;99.90;;;;;;5072821;28;20452;-74
2022/01/07 00:48:21;;;;;;;28.90;26.30;;;0.10;99.90;;;;;;5072242;28;20451;-73
2022/01/07 00:50:48;;;;;;;27.33;24.93;;;0.10;99.90;;;;;;5072717;28;20471;-74
2022/01/07 00:53:15;;;;;;;28.50;25.70;;;0.00;99.90;;;;;;5072593;28;20443;-73
2022/01/07 00:55:42;;;;;;;27.60;24.17;;;0.10;99.90;;;;;;5072407;28;20451;-72
2022/01/07 00:58:08;;;;;;;25.83;23.57;;;0.00;99.90;;;;;;5072028;28;20452;-72
2022/01/07 01:00:37;;;;;;;27.13;24.50;;;0.00;99.90;;;;;;5072338;28;20540;-72
2022/01/07 01:03:04;;;;;;;28.70;23.97;;;0.00;99.90;;;;;;5072118;28;20483;-73
2022/01/07 01:05:32;;;;;;;28.47;25.30;;;0.00;99.90;;;;;;5072491;28;20460;-72
2022/01/07 01:07:59;;;;;;;27.37;24.77;;;0.00;99.90;;;;;;5072314;28;20490;-73
2022/01/07 01:10:26;;;;;;;27.23;24.93;;;-0.10;99.90;;;;;;5072135;28;20451;-73
2022/01/07 01:12:54;;;;;;;31.20;25.07;;;-0.10;99.90;;;;;;5072243;28;20493;-73
2022/01/07 01:15:24;;;;;;;27.47;24.87;;;-0.20;99.90;;;;;;5072218;28;20958;-73
2022/01/07 01:17:54;;;;;;;25.93;23.60;;;-0.20;99.90;;;;;;5071960;28;20464;-73
2022/01/07 01:20:21;;;;;;;23.90;21.80;;;-0.30;99.90;;;;;;5072212;28;20458;-73
2022/01/07 01:22:49;;;;;;;26.50;23.87;;;-0.30;99.90;;;;;;5071893;28;20483;-73
2022/01/07 01:25:16;;;;;;;29.30;25.57;;;-0.40;99.90;;;;;;5071737;28;20454;-73
2022/01/07 01:27:42;;;;;;;27.80;25.20;;;-0.40;99.90;;;;;;5071803;28;20451;-73
2022/01/07 01:30:12;;;;;;;30.33;24.63;;;-0.30;99.90;;;;;;5071980;28;20818;-74
2022/01/07 01:32:39;;;;;;;26.60;24.40;;;-0.30;99.90;;;;;;5071677;28;20447;-73
2022/01/07 01:35:08;;;;;;;31.50;24.23;;;-0.30;99.90;;;;;;5071770;28;20459;-74
2022/01/07 01:37:35;;;;;;;27.17;24.53;;;-0.30;99.90;;;;;;5071495;28;20545;-74
2022/01/07 01:40:03;;;;;;;24.97;22.57;;;-0.30;99.90;;;;;;5071421;28;20980;-73
2022/01/07 01:42:30;;;;;;;27.30;24.30;;;-0.30;99.90;;;;;;5071524;28;20559;-73
2022/01/07 01:44:56;;;;;;;26.90;23.23;;;-0.30;99.90;;;;;;5071697;28;20455;-73
2022/01/07 01:47:23;;;;;;;24.40;22.00;;;-0.30;99.90;;;;;;5071355;28;20935;-73
2022/01/07 01:49:50;;;;;;;25.10;22.70;;;-0.30;99.90;;;;;;5071393;28;20528;-73
2022/01/07 01:52:18;;;;;;;25.50;23.27;;;-0.30;99.90;;;;;;5071427;28;20442;-73
2022/01/07 01:54:45;;;;;;;29.97;25.20;;;-0.30;99.90;;;;;;5071190;28;20453;-73
2022/01/07 01:57:12;;;;;;;24.57;22.53;;;-0.40;99.90;;;;;;5071243;28;20482;-73
2022/01/07 01:59:39;;;;;;;28.33;23.60;;;-0.40;99.90;;;;;;5071132;28;20493;-73
2022/01/07 02:02:06;;;;;;;35.87;24.40;;;-0.40;99.90;;;;;;5071232;28;20528;-73
2022/01/07 02:04:33;;;;;;;27.20;24.43;;;-0.40;99.90;;;;;;5071021;28;20451;-72
2022/01/07 02:07:00;;;;;;;27.27;24.83;;;-0.40;99.90;;;;;;5070819;28;20450;-73
2022/01/07 02:09:35;;;;;;;26.20;23.67;;;-0.40;99.90;;;;;;5070490;28;20451;-72
2022/01/07 02:12:02;;;;;;;25.07;22.97;;;-0.40;99.90;;;;;;5070985;28;20456;-73
2022/01/07 02:14:29;;;;;;;23.83;21.70;;;-0.40;99.90;;;;;;5070993;28;20461;-73
2022/01/07 02:16:55;;;;;;;28.80;25.93;;;-0.40;99.90;;;;;;5070785;28;20462;-73
2022/01/07 02:19:22;;;;;;;24.63;19.93;;;-0.30;99.90;;;;;;5070875;28;20823;-73
2022/01/07 02:21:50;;;;;;;21.30;19.60;;;-0.30;99.90;;;;;;5070945;28;20487;-73
2022/01/07 02:24:17;;;;;;;25.00;22.40;;;-0.30;99.90;;;;;;5070556;28;20954;-73
2022/01/07 02:26:47;;;;;;;26.97;24.27;;;-0.40;99.90;;;;;;5070941;28;20454;-73
2022/01/07 02:29:13;;;;;;;27.47;24.80;;;-0.40;99.90;;;;;;5070970;28;20494;-73
2022/01/07 02:31:40;;;;;;;29.07;23.83;;;-0.40;99.90;;;;;;5070636;28;20944;-73
2022/01/07 02:34:07;;;;;;;28.27;25.27;;;-0.40;99.90;;;;;;5070355;28;20455;-73
2022/01/07 02:36:33;;;;;;;31.77;26.30;;;-0.40;99.90;;;;;;5070904;28;20695;-73
2022/01/07 02:39:01;;;;;;;29.63;26.60;;;-0.30;99.90;;;;;;5070609;28;20450;-73
2022/01/07 02:41:28;;;;;;;28.30;25.50;;;-0.30;99.90;;;;;;5070620;28;20455;-73
2022/01/07 02:43:55;;;;;;;27.33;24.80;;;-0.30;99.90;;;;;;5070674;28;20486;-73
2022/01/07 02:46:22;;;;;;;28.37;25.10;;;-0.30;99.90;;;;;;5070239;28;20450;-73
2022/01/07 02:48:48;;;;;;;30.53;25.70;;;-0.30;99.90;;;;;;5070625;28;20453;-72
2022/01/07 02:51:15;;;;;;;28.47;25.67;;;-0.30;99.90;;;;;;5070405;28;20470;-73
2022/01/07 02:53:42;;;;;;;28.40;25.40;;;-0.30;99.90;;;;;;5070489;28;20814;-73
2022/01/07 02:56:11;;;;;;;34.33;25.40;;;-0.40;99.90;;;;;;5070264;28;20451;-73
2022/01/07 02:58:38;;;;;;;25.93;23.43;;;-0.40;99.90;;;;;;5070662;28;20546;-72
2022/01/07 03:01:05;;;;;;;26.53;23.80;;;-0.40;99.90;;;;;;5070190;28;20476;-72
2022/01/07 03:03:32;;;;;;;27.37;24.87;;;-0.40;99.90;;;;;;5070329;28;20927;-73
2022/01/07 03:05:58;;;;;;;27.20;24.67;;;-0.40;99.90;;;;;;5070270;28;20511;-72
2022/01/07 03:08:26;;;;;;;21.87;19.87;;;-0.40;99.90;;;;;;5070223;28;20453;-73
2022/01/07 03:10:53;;;;;;;22.97;20.77;;;-0.40;99.90;;;;;;5070355;28;20934;-73
2022/01/07 03:13:21;;;;;;;20.33;18.63;;;-0.30;99.90;;;;;;5070198;28;20508;-73
2022/01/07 03:15:48;;;;;;;23.30;21.40;;;-0.40;99.90;;;;;;5070297;28;20878;-73
2022/01/07 03:18:15;;;;;;;23.60;21.70;;;-0.40;99.90;;;;;;5070215;28;20854;-73
2022/01/07 03:20:42;;;;;;;22.40;20.50;;;-0.30;99.90;;;;;;5069912;28;20508;-72
2022/01/07 03:23:11;;;;;;;19.63;17.80;;;-0.40;99.90;;;;;;5073780;28;20501;-73
2022/01/07 03:25:38;;;;;;;22.40;20.13;;;-0.30;99.90;;;;;;5074225;28;20726;-73
2022/01/07 03:28:07;;;;;;;20.83;19.13;;;-0.40;99.90;;;;;;5074133;28;20458;-73
2022/01/07 03:30:35;;;;;;;18.70;17.33;;;-0.30;99.90;;;;;;5074359;28;20964;-73
2022/01/07 03:33:01;;;;;;;21.20;19.40;;;-0.40;99.90;;;;;;5073962;28;20493;-73
2022/01/07 03:35:28;;;;;;;22.03;19.93;;;-0.30;99.90;;;;;;5073795;28;20447;-73
2022/01/07 03:37:55;;;;;;;20.27;18.57;;;-0.30;99.90;;;;;;5073933;28;20583;-73
2022/01/07 03:40:22;;;;;;;22.80;20.73;;;-0.40;99.90;;;;;;5073961;28;20453;-73
2022/01/07 03:42:50;;;;;;;19.17;17.57;;;-0.30;99.90;;;;;;5073818;28;20531;-73
2022/01/07 03:45:17;;;;;;;18.57;17.07;;;-0.30;99.90;;;;;;5073467;28;20540;-73
2022/01/07 03:47:45;;;;;;;19.90;18.03;;;-0.30;99.90;;;;;;5074082;28;20451;-72
2022/01/07 03:50:14;;;;;;;20.20;18.53;;;-0.30;99.90;;;;;;5073670;28;20482;-73
2022/01/07 03:52:42;;;;;;;19.47;17.83;;;-0.30;99.90;;;;;;5073541;28;20486;-72
2022/01/07 03:55:12;;;;;;;19.63;18.10;;;-0.30;99.90;;;;;;5073609;28;20447;-72
2022/01/07 03:57:39;;;;;;;23.27;20.70;;;-0.30;99.90;;;;;;5073685;28;20517;-73
2022/01/07 04:00:08;;;;;;;22.67;20.73;;;-0.30;99.90;;;;;;5073481;28;20894;-73
2022/01/07 04:02:35;;;;;;;20.20;18.47;;;-0.30;99.90;;;;;;5073368;28;20486;-72
2022/01/07 04:05:04;;;;;;;21.13;19.43;;;-0.30;99.90;;;;;;5073400;28;20458;-72
2022/01/07 04:07:31;;;;;;;20.43;18.93;;;-0.20;99.90;;;;;;5073231;28;21006;-72
2022/01/07 04:09:58;;;;;;;22.03;20.17;;;-0.30;99.90;;;;;;5073465;28;20505;-72
2022/01/07 04:12:26;;;;;;;18.50;17.27;;;-0.30;99.90;;;;;;5073455;28;20454;-72
2022/01/07 04:15:03;;;;;;;19.90;18.37;;;-0.30;99.90;;;;;;5073206;28;20454;-73
2022/01/07 04:17:30;;;;;;;16.97;15.77;;;-0.30;99.90;;;;;;5073224;28;20435;-73
2022/01/07 04:19:57;;;;;;;16.73;15.53;;;-0.30;99.90;;;;;;5073298;28;20485;-73
2022/01/07 04:22:25;;;;;;;16.27;15.20;;;-0.30;99.90;;;;;;5072991;28;20490;-72
2022/01/07 04:24:51;;;;;;;16.87;15.07;;;-0.30;99.90;;;;;;5073053;28;20481;-73
2022/01/07 04:27:18;;;;;;;16.40;14.90;;;-0.20;99.90;;;;;;5073036;28;20458;-73
2022/01/07 04:29:45;;;;;;;17.80;16.53;;;-0.20;99.90;;;;;;5072877;28;20451;-73
2022/01/07 04:32:11;;;;;;;15.37;14.47;;;-0.20;99.90;;;;;;5072442;28;20458;-74
2022/01/07 04:34:38;;;;;;;15.20;14.00;;;-0.30;99.90;;;;;;5070024;28;20547;-73
2022/01/07 04:37:05;;;;;;;13.67;12.83;;;-0.20;99.90;;;;;;5069293;28;20500;-73
2022/01/07 04:39:33;;;;;;;16.23;14.70;;;-0.20;99.90;;;;;;5069516;28;20771;-73
2022/01/07 04:42:00;;;;;;;13.37;12.57;;;-0.20;99.90;;;;;;5069846;28;20450;-74
2022/01/07 04:44:27;;;;;;;13.73;12.97;;;-0.20;99.90;;;;;;5071600;28;20991;-74
2022/01/07 04:46:54;;;;;;;17.63;16.23;;;-0.10;99.90;;;;;;5072436;28;20512;-73
2022/01/07 04:49:21;;;;;;;15.03;14.03;;;-0.30;99.90;;;;;;5072505;28;20496;-73
2022/01/07 04:51:48;;;;;;;14.53;13.63;;;-0.20;99.90;;;;;;5072444;28;20444;-73
2022/01/07 04:54:14;;;;;;;17.03;15.60;;;-0.10;99.90;;;;;;5072551;28;20496;-74
2022/01/07 04:56:42;;;;;;;16.13;15.10;;;-0.20;99.90;;;;;;5072376;28;20504;-73
2022/01/07 04:59:09;;;;;;;15.77;14.70;;;-0.20;99.90;;;;;;5072276;28;20458;-74
2022/01/07 05:01:36;;;;;;;17.57;15.90;;;-0.20;99.90;;;;;;5072239;28;20471;-74
2022/01/07 05:04:02;;;;;;;17.83;16.40;;;-0.20;99.90;;;;;;5071958;28;20778;-73
2022/01/07 05:06:44;;;;;;;16.23;15.07;;;-0.20;99.90;;;;;;5072203;28;20454;-74
2022/01/07 05:09:11;;;;;;;18.07;16.70;;;-0.20;99.90;;;;;;5072377;28;20461;-73
2022/01/07 05:11:37;;;;;;;18.80;17.10;;;-0.20;99.90;;;;;;5072192;28;20447;-74
2022/01/07 05:14:05;;;;;;;18.27;16.80;;;-0.20;99.90;;;;;;5072030;28;20450;-76
2022/01/07 05:16:32;;;;;;;18.27;16.63;;;-0.20;99.90;;;;;;5072355;28;20450;-74
2022/01/07 05:18:59;;;;;;;19.37;17.77;;;-0.20;99.90;;;;;;5071721;28;21029;-73
2022/01/07 05:21:25;;;;;;;18.27;16.90;;;-0.20;99.90;;;;;;5071908;28;20447;-73
2022/01/07 05:23:52;;;;;;;18.53;17.03;;;-0.20;99.90;;;;;;5071710;28;20483;-73
2022/01/07 05:26:19;;;;;;;19.50;17.67;;;-0.20;99.90;;;;;;5071926;28;20465;-74
2022/01/07 05:28:46;;;;;;;18.77;16.90;;;-0.30;99.90;;;;;;5071499;28;20932;-74
2022/01/07 05:31:14;;;;;;;18.00;16.33;;;-0.20;99.90;;;;;;5071551;28;20458;-73
2022/01/07 05:33:40;;;;;;;18.87;17.37;;;-0.10;99.90;;;;;;5071753;28;20439;-74
2022/01/07 05:36:07;;;;;;;19.07;17.57;;;-0.20;99.90;;;;;;5071669;28;20503;-74
2022/01/07 05:38:34;;;;;;;19.57;17.93;;;-0.20;99.90;;;;;;5071479;28;20447;-71
2022/01/07 05:41:01;;;;;;;21.57;17.80;;;-0.20;99.90;;;;;;5071549;28;20443;-75
2022/01/07 05:43:28;;;;;;;18.83;17.07;;;-0.10;99.90;;;;;;5071355;28;20491;-71
2022/01/07 05:45:55;;;;;;;21.10;19.20;;;-0.10;99.90;;;;;;5070935;28;20459;-74
2022/01/07 05:48:23;;;;;;;19.20;17.60;;;-0.10;99.90;;;;;;5071142;28;20451;-73
2022/01/07 05:50:50;;;;;;;17.13;15.83;;;-0.10;99.90;;;;;;5071250;28;20990;-74
2022/01/07 05:53:17;;;;;;;19.60;18.10;;;-0.10;99.90;;;;;;5071471;28;20905;-74
2022/01/07 05:55:43;;;;;;;17.03;15.70;;;0.00;99.90;;;;;;5071404;28;20852;-75
2022/01/07 05:58:10;;;;;;;14.80;13.90;;;0.00;99.90;;;;;;5071277;28;20458;-73
2022/01/07 06:00:37;;;;;;;17.23;15.90;;;0.00;99.90;;;;;;5070926;28;20479;-73
2022/01/07 06:03:04;;;;;;;13.07;12.17;;;0.00;99.90;;;;;;5071449;28;20844;-73
2022/01/07 06:05:32;;;;;;;22.80;20.43;;;0.00;99.90;;;;;;5071171;28;20496;-72
2022/01/07 06:07:59;;;;;;;17.37;15.57;;;0.10;99.90;;;;;;5070897;28;20465;-72
2022/01/07 06:10:25;;;;;;;18.33;16.70;;;0.00;99.90;;;;;;5070655;28;20449;-72
2022/01/07 06:12:52;;;;;;;17.00;15.80;;;0.00;99.90;;;;;;5070828;28;20451;-72
2022/01/07 06:15:18;;;;;;;16.27;15.17;;;0.00;99.90;;;;;;5070986;28;20443;-73
2022/01/07 06:17:45;;;;;;;16.67;15.53;;;0.00;99.90;;;;;;5070826;28;20503;-72
2022/01/07 06:20:12;;;;;;;18.37;17.10;;;0.00;99.90;;;;;;5070719;28;20863;-73
2022/01/07 06:22:40;;;;;;;18.07;16.70;;;0.00;99.90;;;;;;5070838;28;20794;-73
2022/01/07 06:25:08;;;;;;;18.60;16.90;;;0.00;99.90;;;;;;5070823;28;20484;-73
2022/01/07 06:27:34;;;;;;;15.27;13.93;;;-0.10;99.90;;;;;;5070864;28;20454;-73
2022/01/07 06:30:01;;;;;;;13.60;13.00;;;-0.10;99.90;;;;;;5070792;28;20458;-74
2022/01/07 06:32:28;;;;;;;14.03;13.00;;;-0.10;99.90;;;;;;5070625;28;20864;-74
2022/01/07 06:34:54;;;;;;;16.13;14.83;;;-0.10;99.90;;;;;;5070704;28;20861;-72
2022/01/07 06:37:21;;;;;;;15.50;14.50;;;0.00;99.90;;;;;;5070730;28;20462;-72
2022/01/07 06:39:49;;;;;;;19.53;17.83;;;0.00;99.90;;;;;;5070729;28;20534;-72
2022/01/07 06:42:16;;;;;;;15.53;14.57;;;0.00;99.90;;;;;;5070459;28;20845;-72
2022/01/07 06:44:44;;;;;;;17.37;16.00;;;0.10;99.90;;;;;;5070533;28;20490;-72
2022/01/07 06:47:10;;;;;;;18.50;16.80;;;0.10;99.90;;;;;;5070449;28;21032;-72
2022/01/07 06:49:37;;;;;;;17.80;16.50;;;0.20;99.90;;;;;;5070096;28;20452;-73
2022/01/07 06:52:05;;;;;;;17.63;16.20;;;0.10;99.90;;;;;;5070439;28;20941;-73
2022/01/07 06:54:32;;;;;;;12.33;11.40;;;0.10;99.90;;;;;;5070531;28;20447;-75
2022/01/07 06:57:00;;;;;;;17.23;15.90;;;0.10;99.90;;;;;;5070258;28;20554;-73
2022/01/07 06:59:27;;;;;;;15.47;14.47;;;0.10;99.90;;;;;;5070209;28;20508;-72
2022/01/07 07:01:54;;;;;;;18.90;17.30;;;0.10;99.90;;;;;;5070412;28;20806;-73
2022/01/07 07:04:20;;;;;;;13.63;12.80;;;0.10;99.90;;;;;;5070451;28;20483;-73
2022/01/07 07:06:47;;;;;;;15.13;14.17;;;0.10;99.90;;;;;;5070353;28;20464;-73
2022/01/07 07:09:15;;;;;;;14.27;13.37;;;0.10;99.90;;;;;;5070214;28;20454;-73
2022/01/07 07:11:43;;;;;;;14.50;13.60;;;0.20;99.90;;;;;;5070415;28;20516;-73
2022/01/07 07:14:11;;;;;;;14.83;13.73;;;0.20;99.90;;;;;;5070107;28;20455;-73
2022/01/07 07:16:38;;;;;;;16.77;15.77;;;0.20;99.90;;;;;;5070196;28;20459;-73
2022/01/07 07:19:05;;;;;;;14.50;13.60;;;0.30;99.90;;;;;;5070296;28;20864;-73
2022/01/07 07:21:32;;;;;;;15.57;14.37;;;0.30;99.90;;;;;;5070159;28;20455;-72
2022/01/07 07:23:58;;;;;;;15.40;14.40;;;0.40;99.90;;;;;;5070253;28;20491;-73
2022/01/07 07:26:25;;;;;;;13.17;12.27;;;0.40;99.90;;;;;;5070010;28;20447;-72
2022/01/07 07:28:52;;;;;;;13.47;12.43;;;0.40;99.90;;;;;;5070297;28;20451;-72
2022/01/07 07:31:20;;;;;;;15.00;13.97;;;0.50;99.90;;;;;;5070061;28;20446;-73
2022/01/07 07:34:07;;;;;;;16.00;14.70;;;0.40;99.90;;;;;;5070064;28;20448;-73
2022/01/07 07:36:34;;;;;;;13.90;13.00;;;0.40;99.90;;;;;;5070251;28;20455;-73
2022/01/07 07:39:05;;;;;;;16.23;15.10;;;0.40;99.90;;;;;;5069907;28;20456;-72
2022/01/07 07:41:33;;;;;;;17.63;15.83;;;0.40;99.90;;;;;;5069979;28;20450;-74
2022/01/07 07:44:01;;;;;;;14.10;13.00;;;0.40;99.90;;;;;;5069842;28;20900;-73
2022/01/07 07:46:31;;;;;;;14.07;12.93;;;0.40;99.90;;;;;;5070183;28;20450;-73
2022/01/07 07:49:00;;;;;;;14.63;13.43;;;0.50;99.90;;;;;;5070151;28;20451;-73
2022/01/07 07:51:28;;;;;;;13.97;12.67;;;0.60;99.90;;;;;;5069643;28;20885;-72
2022/01/07 07:53:55;;;;;;;13.23;12.43;;;0.60;99.90;;;;;;5069883;28;20866;-73
2022/01/07 07:56:22;;;;;;;13.00;12.20;;;0.60;99.90;;;;;;5069839;28;20455;-72
2022/01/07 07:58:49;;;;;;;13.37;12.67;;;0.90;99.90;;;;;;5069884;28;20855;-72
2022/01/07 08:01:18;;;;;;;14.67;13.57;;;0.90;99.90;;;;;;5069625;28;20483;-73
2022/01/07 08:03:46;;;;;;;12.73;12.03;;;1.10;99.90;;;;;;5069757;28;20838;-73
2022/01/07 08:06:13;;;;;;;16.43;15.20;;;1.40;99.90;;;;;;5069922;28;20456;-74
2022/01/07 08:08:41;;;;;;;14.97;13.87;;;1.70;99.90;;;;;;5072334;28;20459;-72
2022/01/07 08:11:10;;;;;;;13.27;12.30;;;1.90;99.90;;;;;;5069366;28;20451;-74
2022/01/07 08:16:19;;;;;;;13.93;13.00;;;2.00;99.90;;;;;;5072411;28;20423;-72
2022/01/07 08:18:49;;;;;;;14.40;13.33;;;1.90;99.90;;;;;;5072377;28;20447;-73
2022/01/07 08:21:17;;;;;;;16.03;14.50;;;1.70;99.90;;;;;;5072443;28;20475;-73
2022/01/07 08:23:46;;;;;;;13.90;12.90;;;1.50;99.90;;;;;;5072118;28;20486;-72
2022/01/07 08:26:14;;;;;;;13.40;12.60;;;1.40;99.90;;;;;;5072126;28;20457;-73
2022/01/07 08:28:46;;;;;;;14.87;13.97;;;1.20;99.90;;;;;;5072307;28;20450;-73
2022/01/07 08:31:26;;;;;;;14.40;13.50;;;1.10;99.90;;;;;;5072053;28;20465;-71
2022/01/07 08:36:39;;;;;;;15.87;14.80;;;1.10;99.90;;;;;;5071797;28;20510;-72
2022/01/07 08:39:08;;;;;;;16.63;15.10;;;1.00;99.90;;;;;;5071747;28;20451;-72
2022/01/07 08:41:36;;;;;;;14.27;13.13;;;1.00;99.90;;;;;;5071781;28;20832;-72
2022/01/07 08:44:05;;;;;;;15.10;14.20;;;1.10;99.90;;;;;;5071582;28;20544;-72
2022/01/07 08:46:32;;;;;;;15.83;14.73;;;1.10;99.90;;;;;;5071515;28;20455;-71
2022/01/07 08:49:00;;;;;;;16.33;15.07;;;1.10;99.90;;;;;;5071783;28;20827;-72
2022/01/07 08:51:27;;;;;;;15.03;14.03;;;1.10;99.90;;;;;;5071453;28;20463;-72
2022/01/07 08:53:55;;;;;;;14.10;13.10;;;1.10;99.90;;;;;;5065120;28;20475;-72
2022/01/07 08:56:23;;;;;;;15.97;14.87;;;1.10;99.90;;;;;;5053124;28;20472;-72
2022/01/07 08:58:51;;;;;;;16.03;14.93;;;1.10;99.90;;;;;;5054353;28;21066;-72
2022/01/07 09:01:18;;;;;;;15.53;14.47;;;1.20;99.90;;;;;;5063624;28;20487;-73
2022/01/07 09:03:45;;;;;;;16.73;15.10;;;1.10;99.90;;;;;;5070873;28;20448;-72
2022/01/07 09:06:13;;;;;;;16.57;15.27;;;1.20;99.90;;;;;;5069664;28;20461;-73
2022/01/07 09:08:39;;;;;;;15.63;14.43;;;1.20;99.90;;;;;;5060059;28;20832;-73
2022/01/07 09:11:06;;;;;;;15.00;13.70;;;1.20;99.90;;;;;;5071138;28;20963;-73
2022/01/07 09:13:33;;;;;;;16.00;14.80;;;1.30;99.90;;;;;;5071056;28;20465;-73
2022/01/07 09:15:59;;;;;;;15.93;14.73;;;1.20;99.90;;;;;;5052603;28;20465;-73
2022/01/07 09:18:26;;;;;;;15.33;14.23;;;1.30;99.90;;;;;;5067705;28;20504;-73
2022/01/07 09:20:54;;;;;;;16.57;15.17;;;1.40;99.90;;;;;;5060737;28;20464;-73
2022/01/07 09:23:22;;;;;;;15.87;14.47;;;1.40;99.90;;;;;;5051069;28;20458;-74
2022/01/07 09:25:49;;;;;;;16.33;14.90;;;1.40;99.90;;;;;;5051223;28;20492;-74
2022/01/07 09:28:15;;;;;;;16.80;15.07;;;1.50;99.90;;;;;;5058379;28;20438;-75
2022/01/07 09:30:42;;;;;;;17.40;15.63;;;1.60;99.90;;;;;;5070792;28;20462;-74
2022/01/07 09:33:09;;;;;;;16.80;15.50;;;1.60;99.90;;;;;;5070722;28;20513;-74
2022/01/07 09:35:36;;;;;;;16.93;15.57;;;1.60;99.90;;;;;;5070815;28;20450;-74
2022/01/07 09:38:04;;;;;;;15.20;14.10;;;1.60;99.90;;;;;;5070739;28;20456;-74
2022/01/07 09:40:32;;;;;;;14.77;13.60;;;1.60;99.90;;;;;;5070594;28;20467;-74
2022/01/07 09:43:01;;;;;;;16.23;14.80;;;1.60;99.90;;;;;;5063067;28;20922;-74
2022/01/07 09:45:30;;;;;;;16.17;14.97;;;1.70;99.90;;;;;;5053242;28;20546;-74
2022/01/07 09:47:57;;;;;;;17.03;15.83;;;1.70;99.90;;;;;;5050935;28;20475;-74
2022/01/07 09:50:25;;;;;;;17.50;16.00;;;1.70;99.90;;;;;;5050772;28;20599;-74
2022/01/07 09:52:52;;;;;;;20.70;14.70;;;1.60;99.90;;;;;;5050911;28;20502;-74
2022/01/07 09:55:19;;;;;;;16.60;15.03;;;1.70;99.90;;;;;;5050973;28;20447;-74
2022/01/07 09:57:47;;;;;;;18.97;15.83;;;1.60;99.90;;;;;;5050396;28;20446;-73
2022/01/07 10:00:14;;;;;;;16.87;15.57;;;1.70;99.90;;;;;;5050496;28;20491;-73
2022/01/07 10:02:59;;;;;;;17.93;16.40;;;1.80;99.90;;;;;;5050499;28;20617;-75
2022/01/07 10:05:25;;;;;;;18.93;15.70;;;2.00;99.90;;;;;;5050475;28;20491;-74
2022/01/07 10:07:52;;;;;;;17.80;16.33;;;2.20;99.90;;;;;;5048802;28;20467;-74
2022/01/07 10:10:19;;;;;;;13.30;12.10;;;2.40;99.90;;;;;;5050414;28;20954;-75
2022/01/07 10:12:53;;;;;;;15.13;14.03;;;2.30;99.90;;;;;;5050406;28;20868;-74
2022/01/07 10:15:21;;;;;;;15.60;14.40;;;2.30;99.90;;;;;;5050457;28;20452;-74
2022/01/07 10:17:58;;;;;;;16.40;15.10;;;2.40;99.90;;;;;;5050416;28;20479;-74
2022/01/07 10:20:26;;;;;;;15.60;14.37;;;2.50;99.90;;;;;;5050028;28;20432;-74
2022/01/07 10:22:55;;;;;;;16.40;14.13;;;2.60;99.90;;;;;;5050150;28;20454;-76
2022/01/07 10:25:24;;;;;;;15.83;14.53;;;2.60;99.90;;;;;;5050059;28;20551;-75
2022/01/07 10:27:53;;;;;;;15.13;14.03;;;2.50;99.90;;;;;;5050287;28;20456;-75
2022/01/07 10:30:25;;;;;;;15.40;14.20;;;2.50;99.90;;;;;;5049636;28;20514;-77
2022/01/07 10:32:53;;;;;;;15.53;14.30;;;2.40;99.90;;;;;;5049839;28;20791;-75
2022/01/07 10:35:21;;;;;;;16.37;14.87;;;2.20;99.90;;;;;;5049889;28;20537;-77
2022/01/07 10:37:51;;;;;;;17.20;16.07;;;2.20;99.90;;;;;;5049397;28;20459;-77
2022/01/07 10:40:27;;;;;;;21.40;16.30;;;2.10;99.90;;;;;;5049343;28;20457;-78
2022/01/07 10:42:56;;;;;;;18.20;16.70;;;2.00;99.90;;;;;;5049587;28;20448;-79
2022/01/07 10:45:23;;;;;;;18.13;16.67;;;1.90;99.90;;;;;;5048899;28;20925;-78
2022/01/07 10:47:51;;;;;;;19.70;18.20;;;1.90;99.90;;;;;;5049209;28;20452;-77
2022/01/07 10:50:20;;;;;;;18.30;16.93;;;1.80;99.90;;;;;;5049032;28;20477;-77
2022/01/07 10:52:47;;;;;;;16.53;15.40;;;1.90;99.90;;;;;;5049243;28;20456;-77
2022/01/07 10:55:18;;;;;;;17.07;15.87;;;1.90;99.90;;;;;;5049586;28;20463;-81
2022/01/07 10:57:47;;;;;;;18.23;16.93;;;1.90;99.90;;;;;;5049615;28;20579;-80
2022/01/07 11:00:17;;;;;;;17.87;16.70;;;1.90;99.90;;;;;;5049431;28;20484;-79
2022/01/07 11:02:45;;;;;;;19.53;18.33;;;1.90;99.90;;;;;;5049608;28;20453;-76
2022/01/07 11:05:12;;;;;;;21.60;20.00;;;1.90;99.90;;;;;;5049275;28;20542;-80
2022/01/07 11:07:39;;;;;;;21.97;20.57;;;2.00;99.90;;;;;;5049604;28;20935;-80
2022/01/07 11:10:08;;;;;;;22.87;21.30;;;1.90;99.90;;;;;;5049467;28;20818;-81
2022/01/07 11:12:36;;;;;;;22.00;20.50;;;1.80;99.90;;;;;;5049889;28;20530;-80
2022/01/07 11:15:06;;;;;;;22.67;21.27;;;1.80;99.90;;;;;;5049769;28;20569;-79
2022/01/07 11:17:34;;;;;;;25.10;23.20;;;1.80;99.90;;;;;;5049066;28;20452;-78
2022/01/07 11:20:02;;;;;;;26.33;24.47;;;1.70;99.90;;;;;;5049468;28;20816;-78
2022/01/07 11:22:30;;;;;;;27.57;25.60;;;1.70;99.90;;;;;;5049562;28;20515;-78
2022/01/07 11:25:08;;;;;;;28.43;26.50;;;1.70;99.90;;;;;;5049117;28;20551;-76
2022/01/07 11:27:48;;;;;;;30.10;28.00;;;1.70;99.90;;;;;;5049155;28;20957;-78
2022/01/07 11:30:18;;;;;;;29.60;27.60;;;1.70;99.90;;;;;;5049511;28;20490;-76
2022/01/07 11:32:47;;;;;;;30.07;27.50;;;1.70;99.90;;;;;;5049147;28;20482;-75
2022/01/07 11:35:45;;;;;;;31.47;29.50;;;1.70;99.90;;;;;;5049078;28;20446;-73
2022/01/07 11:38:40;;;;;;;29.70;27.93;;;1.80;99.90;;;;;;5049251;28;20453;-75
2022/01/07 11:41:14;;;;;;;30.70;28.60;;;1.80;99.90;;;;;;5049349;28;20916;-74
2022/01/07 11:43:44;;;;;;;33.30;31.07;;;1.80;99.90;;;;;;5051947;28;20454;-76
2022/01/07 11:46:27;;;;;;;32.60;30.40;;;1.80;99.90;;;;;;5052629;28;20717;-76
2022/01/07 11:48:56;;;;;;;35.33;32.90;;;1.80;99.90;;;;;;5051341;28;20456;-76
2022/01/07 11:51:23;;;;;;;34.30;31.90;;;1.80;99.90;;;;;;5052555;28;20883;-76
2022/01/07 11:54:03;;;;;;;33.47;31.60;;;1.90;99.90;;;;;;5052547;28;20448;-76
2022/01/07 11:56:31;;;;;;;33.40;31.27;;;1.80;99.90;;;;;;5052659;28;20444;-74
2022/01/07 11:59:00;;;;;;;35.53;33.43;;;1.90;99.90;;;;;;5052421;28;21034;-76
2022/01/07 12:01:28;;;;;;;36.57;34.17;;;1.90;99.90;;;;;;5050123;28;20498;-75
2022/01/07 12:03:58;;;;;;;36.83;33.80;;;2.00;99.90;;;;;;5052229;28;21007;-74
2022/01/07 12:06:50;;;;;;;39.13;36.43;;;2.10;99.90;;;;;;5052021;28;20564;-75
2022/01/07 12:09:21;;;;;;;35.37;33.07;;;2.10;99.90;;;;;;5052191;28;20477;-76
2022/01/07 12:11:54;;;;;;;33.23;31.23;;;2.20;99.90;;;;;;5052244;28;21114;-77
2022/01/07 12:14:23;;;;;;;30.87;28.67;;;2.20;99.90;;;;;;5052101;28;20483;-81
2022/01/07 12:16:52;;;;;;;30.90;28.90;;;2.20;99.90;;;;;;5052019;28;20855;-80
2022/01/07 12:19:57;;;;;;;29.73;27.93;;;2.20;99.90;;;;;;5052227;28;20965;-84
2022/01/07 12:22:25;;;;;;;27.13;25.53;;;2.20;99.90;;;;;;5042043;28;20508;-86
2022/01/07 12:24:59;;;;;;;30.10;28.10;;;2.20;99.90;;;;;;5052320;28;20495;-81
2022/01/07 12:27:26;;;;;;;29.30;27.53;;;2.20;99.90;;;;;;5052065;28;20457;-79
2022/01/07 12:29:55;;;;;;;27.90;26.20;;;2.20;99.90;;;;;;5051784;28;20448;-79
2022/01/07 12:32:30;;;;;;;28.63;26.70;;;2.30;99.90;;;;;;5051889;28;20458;-77
2022/01/07 12:34:57;;;;;;;28.20;26.50;;;2.30;99.90;;;;;;5051762;28;20815;-76
2022/01/07 12:37:26;;;;;;;32.50;30.13;;;2.30;99.90;;;;;;5051837;28;20448;-76
2022/01/07 12:39:54;;;;;;;29.10;27.47;;;2.30;99.90;;;;;;5051637;28;20456;-76
2022/01/07 12:42:21;;;;;;;29.57;27.50;;;2.40;99.90;;;;;;5051684;28;20458;-76
2022/01/07 12:44:51;;;;;;;28.33;26.77;;;2.40;99.90;;;;;;5051542;28;20458;-76